Stations météo

Publicité
Grenoble le Versoud, France (7487): Température de l'air & dewpoint: 28.05.2020 00:00:00 - 03.06.2020 00:00:00 (CEST)Grenoble le Versoud, France (7487): Vitesse du vent & gusts: 28.05.2020 00:00:00 - 03.06.2020 00:00:00 (CEST)Grenoble le Versoud, France (7487): Direction du vent: 28.05.2020 00:00:00 - 03.06.2020 00:00:00 (CEST)Grenoble le Versoud, France (7487): reduced air pressure: 28.05.2020 00:00:00 - 03.06.2020 00:00:00 (CEST)Grenoble le Versoud, France (7487): Quantités de précipitations: 28.05.2020 00:00:00 - 03.06.2020 00:00:00 (CEST)
Date & Time tt [°C] td [°C] ff [km/h] ff [knt] fx [km/h] fx [knt] dd ppp [hPa] rr [mm]
03.06.2020 00:00:00 18,0 15,1 0 0 5 3 N 1011,8 0,0
02.06.2020 23:00:00 18,7 14,8 2 1 6 3 SSW 1011,9 0,0
02.06.2020 22:00:00 20,5 15,1 0 0 5 3 N 1011,2 0,0
02.06.2020 21:00:00 22,6 14,9 0 0 12 6 N 1010,7 0,0
02.06.2020 20:00:00 25,4 14,5 8 4 17 9 N 1010,4 0,0
02.06.2020 19:00:00 28,2 14,8 4 2 10 5 WNW 1010,2 0,0
02.06.2020 18:00:00 27,6 14,6 5 3 11 6 W 1010,5 0,0
02.06.2020 17:00:00 27,5 14,5 5 3 10 5 NE 1011,1 0,0
02.06.2020 16:00:00 27,1 15,5 4 2 11 6 NW 1011,9 0,0
02.06.2020 15:00:00 26,1 13,2 4 2 10 5 NNE 1012,8 0,0
02.06.2020 14:00:00 25,2 13,7 5 3 12 7 N 1013,8 0,0
02.06.2020 13:00:00 23,9 14,6 5 3 11 6 W 1014,6 0,0
02.06.2020 12:00:00 22,3 14,7 5 3 11 6 W 1015,5 0,0
02.06.2020 11:00:00 20,8 15,6 4 2 9 5 WNW 1016,1 -
02.06.2020 10:00:00 19,6 14,2 2 1 8 4 N 1016,8 0,0
02.06.2020 09:00:00 17,4 13,5 0 0 5 3 N 1017,7 0,0
02.06.2020 08:00:00 16,1 14,1 2 1 8 4 SW 1017,5 0,0
02.06.2020 07:00:00 13,8 13,3 4 2 6 3 SW 1017,5 0,0
02.06.2020 06:00:00 13,5 12,9 3 2 5 3 SSW 1017,4 0,2
02.06.2020 05:00:00 13,7 12,9 0 0 8 4 N 1017,6 0,0
02.06.2020 04:00:00 14,4 13,4 2 1 6 4 S 1017,8 0,0
02.06.2020 03:00:00 15,2 14,2 2 1 6 3 ESE 1018,3 0,0
02.06.2020 02:00:00 15,4 14,4 3 2 11 6 E 1019,0 0,0
02.06.2020 01:00:00 15,5 14,5 2 1 9 5 E 1019,5 0,0
02.06.2020 00:00:00 15,6 14,8 7 4 11 6 W 1019,4 2,1
01.06.2020 23:00:00 16,0 15,2 5 3 14 8 ENE 1019,5 5,2
01.06.2020 22:00:00 15,7 14,2 9 5 31 17 WSW 1019,1 7,8
01.06.2020 21:00:00 17,4 13,9 21 11 40 22 WSW 1017,9 1,8
01.06.2020 20:00:00 22,4 14,3 4 2 8 4 SSW 1014,5 0,0
01.06.2020 19:00:00 23,9 14,3 4 2 10 5 SE 1013,9 0,0
01.06.2020 18:00:00 25,3 13,5 4 2 13 7 NW 1014,0 0,0
01.06.2020 17:00:00 25,6 13,8 11 6 18 10 NNE 1014,4 0,0
01.06.2020 16:00:00 22,9 12,5 16 8 36 19 SSE 1014,9 0,0
01.06.2020 15:00:00 26,0 14,1 3 1 16 9 WSW 1014,6 0,0
01.06.2020 14:00:00 25,3 12,5 9 5 18 10 NNE 1014,6 0,0
01.06.2020 13:00:00 24,7 10,9 0 0 9 5 N 1015,2 0,0
01.06.2020 12:00:00 23,0 12,0 4 2 11 6 NE 1015,5 0,0
01.06.2020 11:00:00 21,6 10,1 3 2 12 7 N 1016,2 0,0
01.06.2020 10:00:00 19,9 10,6 4 2 14 8 NNE 1016,7 0,0
01.06.2020 09:00:00 18,3 10,6 5 3 9 5 NE 1017,0 0,0
01.06.2020 08:00:00 16,1 10,6 3 2 7 4 ENE 1017,2 0,0
01.06.2020 07:00:00 12,4 11,0 0 0 4 2 N 1017,3 0,0
01.06.2020 06:00:00 11,5 10,6 2 1 4 2 NE 1017,2 0,0
01.06.2020 05:00:00 12,0 10,7 2 1 6 3 NE 1016,7 0,0
01.06.2020 04:00:00 11,9 10,3 3 2 5 3 WNW 1016,5 0,0
01.06.2020 03:00:00 12,8 11,0 2 1 5 3 N 1016,5 0,0
01.06.2020 02:00:00 14,0 11,2 2 1 7 4 NNE 1015,9 0,0
01.06.2020 01:00:00 14,6 12,5 3 2 5 3 NNE 1015,5 0,0
01.06.2020 00:00:00 15,1 12,0 0 0 5 3 N 1015,1 0,0
31.05.2020 23:00:00 16,5 13,0 0 0 4 2 N 1014,6 0,0
31.05.2020 22:00:00 18,0 12,0 0 0 4 2 N 1013,7 0,0
31.05.2020 21:00:00 20,4 12,4 2 1 14 8 W 1012,9 0,0
31.05.2020 20:00:00 24,0 11,3 11 6 22 12 NE 1012,2 0,0
31.05.2020 19:00:00 25,6 10,6 18 10 26 14 NE 1011,7 0,0
31.05.2020 18:00:00 26,3 12,0 14 7 21 11 NNE 1011,8 0,0
31.05.2020 17:00:00 26,5 10,2 10 5 16 9 NE 1012,0 0,0
31.05.2020 16:00:00 26,5 11,4 6 4 13 7 NNW 1012,2 0,0
31.05.2020 15:00:00 25,3 10,3 7 4 13 7 N 1012,8 0,0
31.05.2020 14:00:00 24,9 9,6 3 1 10 6 WSW 1013,1 0,0
31.05.2020 13:00:00 23,1 11,2 5 3 12 6 NNW 1013,7 0,0
31.05.2020 12:00:00 21,9 9,1 4 2 13 7 ENE 1014,4 0,0
31.05.2020 11:00:00 20,3 10,1 6 3 17 9 NNE 1015,1 0,0
31.05.2020 10:00:00 18,8 9,0 8 5 14 7 NNE 1015,7 0,0
31.05.2020 09:00:00 17,5 9,6 4 2 9 5 NNE 1016,2 0,0
31.05.2020 08:00:00 15,3 10,3 2 1 4 2 ENE 1016,2 0,2
31.05.2020 07:00:00 11,2 10,3 3 1 5 3 NNE 1016,6 0,0
31.05.2020 06:00:00 10,2 9,1 0 0 3 1 N 1016,3 0,0
31.05.2020 05:00:00 10,6 9,2 2 1 4 2 NNE 1015,9 0,0
31.05.2020 04:00:00 11,1 9,5 0 0 6 3 N 1015,8 0,0
31.05.2020 03:00:00 12,1 10,0 3 2 4 2 N 1015,7 0,0
31.05.2020 02:00:00 12,7 10,4 0 0 5 3 N 1015,6 0,0
31.05.2020 01:00:00 13,8 10,8 0 0 4 2 N 1015,3 0,0
31.05.2020 00:00:00 15,0 10,8 0 0 4 2 N 1014,8 0,0
30.05.2020 23:00:00 16,4 10,9 2 1 9 5 SSW 1014,3 0,0
30.05.2020 22:00:00 19,0 10,5 6 4 9 5 ENE 1013,4 0,0
30.05.2020 21:00:00 21,3 11,0 3 2 12 7 E 1012,8 0,0
30.05.2020 20:00:00 23,6 11,9 3 1 9 5 E 1012,5 0,0
30.05.2020 19:00:00 22,8 9,9 5 3 16 9 E 1012,5 0,0
30.05.2020 18:00:00 24,4 9,5 6 3 18 10 NNE 1012,5 0,0
30.05.2020 17:00:00 25,0 10,8 13 7 19 10 NNE 1012,7 0,0
30.05.2020 16:00:00 23,7 10,0 3 2 21 11 NE 1013,2 0,0
30.05.2020 15:00:00 24,5 10,4 9 5 20 11 NNE 1013,5 0,0
30.05.2020 14:00:00 24,2 11,8 3 2 17 9 SSW 1014,2 0,0
30.05.2020 13:00:00 23,1 9,5 4 2 13 7 SW 1015,0 0,0
30.05.2020 12:00:00 21,3 9,5 5 3 12 7 N 1015,9 0,0
30.05.2020 11:00:00 20,0 9,5 6 4 14 7 N 1016,7 0,0
30.05.2020 10:00:00 18,5 9,0 5 3 12 6 N 1017,4 0,0
30.05.2020 09:00:00 17,2 8,6 2 1 7 4 NE 1017,9 0,0
30.05.2020 08:00:00 14,2 8,8 0 0 4 2 N 1018,5 0,0
30.05.2020 07:00:00 10,0 8,8 0 0 3 2 N 1018,9 0,0
30.05.2020 06:00:00 9,8 8,2 0 0 6 4 N 1018,7 0,0
30.05.2020 05:00:00 10,5 8,6 2 1 6 3 NE 1018,5 0,0
30.05.2020 04:00:00 10,5 8,4 0 0 5 3 N 1018,6 0,0
30.05.2020 03:00:00 11,3 8,7 0 0 6 3 N 1018,6 0,0
30.05.2020 02:00:00 12,2 9,0 0 0 8 4 N 1018,2 0,0
30.05.2020 01:00:00 12,7 8,8 0 0 4 2 N 1018,1 0,0
30.05.2020 00:00:00 13,3 8,6 2 1 4 2 NNW 1017,7 0,0
29.05.2020 23:00:00 14,8 8,3 0 0 4 2 N 1017,1 0,0
29.05.2020 22:00:00 17,2 9,4 0 0 7 4 N 1016,3 0,0
29.05.2020 21:00:00 19,4 6,1 6 3 22 12 NE 1015,5 0,0
29.05.2020 20:00:00 23,3 6,1 13 7 23 13 N 1014,6 0,0
29.05.2020 19:00:00 25,0 5,7 12 7 24 13 NNE 1014,2 0,0
29.05.2020 18:00:00 25,3 6,5 15 8 24 13 NNE 1013,8 0,0
29.05.2020 17:00:00 25,1 8,6 16 8 27 15 NNE 1014,0 0,0
29.05.2020 16:00:00 24,9 8,4 14 8 25 13 NNE 1014,3 0,0
29.05.2020 15:00:00 24,1 10,4 10 6 21 11 NNE 1014,9 0,0
29.05.2020 14:00:00 23,3 9,7 11 6 23 12 NNE 1015,5 0,0
29.05.2020 13:00:00 22,5 10,0 5 3 17 9 E 1016,1 0,0
29.05.2020 12:00:00 21,2 10,4 10 5 22 12 N 1016,8 0,0
29.05.2020 11:00:00 20,3 9,8 16 9 26 14 NE 1017,5 0,0
29.05.2020 10:00:00 19,3 10,8 13 7 26 14 NE 1017,9 0,0
29.05.2020 09:00:00 18,0 9,9 10 5 18 10 NE 1018,3 0,0
29.05.2020 08:00:00 15,4 10,4 0 0 4 2 N 1018,9 0,0
29.05.2020 07:00:00 12,2 9,9 2 1 8 4 W 1019,4 0,0
29.05.2020 06:00:00 10,9 8,3 0 0 8 4 N 1019,5 0,0
29.05.2020 05:00:00 11,4 8,8 3 2 8 4 NW 1019,3 0,0
29.05.2020 04:00:00 11,2 9,6 2 1 4 2 W 1019,5 0,0
29.05.2020 03:00:00 11,9 9,5 0 0 5 3 N 1019,8 0,0
29.05.2020 02:00:00 12,7 9,9 3 1 5 3 NE 1019,8 0,0
29.05.2020 01:00:00 13,4 10,0 2 1 6 3 SW 1019,9 0,0
29.05.2020 00:00:00 14,4 10,6 3 2 9 5 NNW 1019,9 0,0
28.05.2020 23:00:00 16,3 10,8 2 1 5 3 SW 1019,8 0,0
28.05.2020 22:00:00 19,0 10,3 2 1 7 4 S 1019,7 0,0
28.05.2020 21:00:00 21,5 10,3 5 3 23 13 NE 1019,4 0,0
28.05.2020 20:00:00 24,3 10,6 15 8 37 20 NNE 1019,0 0,0
28.05.2020 19:00:00 26,0 8,5 22 12 34 19 NE 1018,8 0,0
28.05.2020 18:00:00 26,4 9,7 24 13 33 18 NE 1019,2 0,0
28.05.2020 17:00:00 26,5 8,9 18 10 29 16 NNE 1019,6 0,0
28.05.2020 16:00:00 26,1 8,6 16 9 25 13 NNE 1020,5 0,0
28.05.2020 15:00:00 25,5 10,5 14 8 22 12 NE 1021,4 0,0
28.05.2020 14:00:00 24,7 12,0 8 4 18 10 N 1022,2 0,0
28.05.2020 13:00:00 23,5 10,2 8 4 18 10 ENE 1023,2 0,0
28.05.2020 12:00:00 22,0 9,8 8 4 13 7 NE 1024,3 0,0
28.05.2020 11:00:00 20,7 8,7 5 3 14 8 NNE 1025,2 0,0
28.05.2020 10:00:00 19,2 9,7 4 2 8 4 NE 1026,0 0,0
28.05.2020 09:00:00 17,7 9,6 3 2 6 4 E 1026,8 0,0
28.05.2020 08:00:00 14,8 10,2 0 0 5 3 N 1027,5 0,0
28.05.2020 07:00:00 11,5 10,2 0 0 5 3 N 1028,0 0,0
28.05.2020 06:00:00 10,4 9,5 0 0 4 2 N 1028,0 0,0
28.05.2020 05:00:00 11,0 9,9 4 2 6 3 NE 1028,0 0,0
28.05.2020 04:00:00 11,1 9,7 0 0 4 2 N 1027,7 0,0
28.05.2020 03:00:00 12,2 10,8 0 0 5 3 N 1027,7 0,0
28.05.2020 02:00:00 12,9 11,1 3 1 4 2 NNE 1027,7 0,0
28.05.2020 01:00:00 13,7 11,6 0 0 3 2 N 1027,7 0,0
28.05.2020 00:00:00 14,8 12,1 2 1 4 2 N 1027,6 0,0

tt = Température de l'air
td = dewpoint
ff = Vitesse du vent
fx = gusts
dd = Direction du vent
ppp = reduced air pressure
rr = Quantités de précipitations

stations d'obs. à proximité